Time;durP1;ratioP1;P1;durP2;ratioP2;P2;SDS_P1;SDS_P2;PMS_P1;PMS_P2;Temp;Humidity;BMP_temperature;BMP_pressure;BME280_temperature;BME280_humidity;BME280_pressure;Samples;Min_cycle;Max_cycle;Signal;HPM_P1;HPM_P2
2019/07/20 00:02:09;;;;;;;2.73;2.18;;;;;;;21.84;55.18;100407.49;;;;-61
2019/07/20 00:05:09;;;;;;;2.23;2.03;;;;;;;21.84;55.13;100404.63;;;;-61
2019/07/20 00:08:09;;;;;;;2.36;2.11;;;;;;;21.84;55.14;100400.27;;;;-51
2019/07/20 00:11:09;;;;;;;2.42;2.22;;;;;;;21.83;55.17;100397.47;;;;-61
2019/07/20 00:14:10;;;;;;;2.99;2.10;;;;;;;21.81;55.13;100397.23;;;;-47
2019/07/20 00:17:09;;;;;;;2.10;1.91;;;;;;;21.84;55.12;100396.40;;;;-51
2019/07/20 00:20:09;;;;;;;2.04;1.89;;;;;;;21.83;55.19;100395.19;;;;-51
2019/07/20 00:23:09;;;;;;;2.23;2.03;;;;;;;21.82;55.15;100389.87;;;;-51
2019/07/20 00:26:09;;;;;;;2.11;1.94;;;;;;;21.82;55.18;100385.40;;;;-60
2019/07/20 00:29:09;;;;;;;2.09;1.99;;;;;;;21.82;55.14;100387.86;;;;-52
2019/07/20 00:32:09;;;;;;;2.21;1.93;;;;;;;21.81;55.17;100387.99;;;;-51
2019/07/20 00:35:09;;;;;;;2.03;1.93;;;;;;;21.81;55.15;100384.29;;;;-51
2019/07/20 00:38:11;;;;;;;2.38;2.11;;;;;;;21.81;55.13;100381.27;;;;-48
2019/07/20 00:41:09;;;;;;;2.17;1.97;;;;;;;21.81;55.15;100381.00;;;;-47
2019/07/20 00:44:09;;;;;;;2.45;1.80;;;;;;;21.81;55.17;100380.09;;;;-60
2019/07/20 00:47:09;;;;;;;2.27;2.07;;;;;;;21.80;55.13;100377.03;;;;-51
2019/07/20 00:50:09;;;;;;;3.11;2.09;;;;;;;21.80;55.14;100379.62;;;;-60
2019/07/20 00:53:09;;;;;;;2.53;1.95;;;;;;;21.80;55.19;100379.72;;;;-51
2019/07/20 00:56:09;;;;;;;2.03;1.83;;;;;;;21.81;55.19;100384.19;;;;-47
2019/07/20 00:59:09;;;;;;;2.02;1.92;;;;;;;21.80;55.16;100380.63;;;;-51
2019/07/20 01:02:09;;;;;;;2.29;2.09;;;;;;;21.80;55.14;100378.78;;;;-51
2019/07/20 01:05:09;;;;;;;2.21;2.01;;;;;;;21.79;55.16;100380.19;;;;-51
2019/07/20 01:08:10;;;;;;;2.21;2.00;;;;;;;21.79;55.16;100380.70;;;;-47
2019/07/20 01:11:09;;;;;;;2.13;1.97;;;;;;;21.79;55.15;100374.14;;;;-52
2019/07/20 01:14:09;;;;;;;2.77;1.91;;;;;;;21.79;55.15;100375.81;;;;-51
2019/07/20 01:17:09;;;;;;;2.32;2.00;;;;;;;21.78;55.18;100373.77;;;;-51
2019/07/20 01:20:09;;;;;;;1.99;1.87;;;;;;;21.78;55.12;100373.94;;;;-52
2019/07/20 01:23:09;;;;;;;1.98;1.87;;;;;;;21.79;55.17;100371.02;;;;-51
2019/07/20 01:26:09;;;;;;;2.05;1.87;;;;;;;21.77;55.20;100368.02;;;;-47
2019/07/20 01:29:09;;;;;;;2.02;1.89;;;;;;;21.78;55.19;100369.06;;;;-51
2019/07/20 01:32:09;;;;;;;2.24;1.97;;;;;;;21.78;55.14;100366.95;;;;-52
2019/07/20 01:35:09;;;;;;;2.72;1.93;;;;;;;21.78;55.17;100364.02;;;;-52
2019/07/20 01:38:09;;;;;;;2.12;1.92;;;;;;;21.78;55.16;100363.41;;;;-51
2019/07/20 01:41:10;;;;;;;1.93;1.82;;;;;;;21.77;55.19;100357.66;;;;-47
2019/07/20 01:44:09;;;;;;;1.93;1.83;;;;;;;21.77;55.15;100354.97;;;;-52
2019/07/20 01:47:09;;;;;;;2.01;1.91;;;;;;;21.77;55.14;100357.16;;;;-60
2019/07/20 01:50:09;;;;;;;1.85;1.75;;;;;;;21.76;55.15;100353.09;;;;-51
2019/07/20 01:53:09;;;;;;;2.23;2.03;;;;;;;21.76;55.17;100352.69;;;;-63
2019/07/20 01:56:09;;;;;;;2.17;1.97;;;;;;;21.76;55.15;100347.71;;;;-47
2019/07/20 01:59:09;;;;;;;2.18;1.98;;;;;;;21.77;55.17;100346.73;;;;-52
2019/07/20 02:02:09;;;;;;;2.10;1.90;;;;;;;21.76;55.17;100343.78;;;;-61
2019/07/20 02:05:09;;;;;;;2.04;1.89;;;;;;;21.76;55.20;100340.66;;;;-51
2019/07/20 02:08:09;;;;;;;1.99;1.89;;;;;;;21.77;55.18;100339.67;;;;-51
2019/07/20 02:11:09;;;;;;;2.08;1.89;;;;;;;21.76;55.16;100337.80;;;;-52
2019/07/20 02:14:09;;;;;;;2.19;2.03;;;;;;;21.76;55.18;100337.56;;;;-51
2019/07/20 02:17:10;;;;;;;2.17;1.80;;;;;;;21.76;55.18;100333.77;;;;-48
2019/07/20 02:20:09;;;;;;;1.90;1.80;;;;;;;21.75;55.16;100334.50;;;;-51
2019/07/20 02:23:10;;;;;;;2.11;1.92;;;;;;;21.74;55.20;100333.45;;;;-47
2019/07/20 02:26:09;;;;;;;1.90;1.80;;;;;;;21.75;55.21;100328.52;;;;-52
2019/07/20 02:29:09;;;;;;;2.11;1.76;;;;;;;21.75;55.14;100327.51;;;;-61
2019/07/20 02:32:09;;;;;;;2.10;1.89;;;;;;;21.74;55.19;100322.13;;;;-60
2019/07/20 02:35:09;;;;;;;1.90;1.80;;;;;;;21.74;55.15;100323.30;;;;-61
2019/07/20 02:38:09;;;;;;;2.09;1.99;;;;;;;21.74;55.18;100317.22;;;;-51
2019/07/20 02:41:09;;;;;;;2.11;1.90;;;;;;;21.74;55.17;100316.38;;;;-52
2019/07/20 02:44:09;;;;;;;2.14;1.91;;;;;;;21.74;55.20;100317.99;;;;-51
2019/07/20 02:47:10;;;;;;;2.04;1.92;;;;;;;21.74;55.18;100319.84;;;;-47
2019/07/20 02:50:09;;;;;;;2.16;1.96;;;;;;;21.73;55.18;100318.30;;;;-48
2019/07/20 02:53:09;;;;;;;1.96;1.83;;;;;;;21.73;55.18;100321.66;;;;-60
2019/07/20 02:56:09;;;;;;;2.11;1.91;;;;;;;21.73;55.18;100313.08;;;;-52
2019/07/20 02:59:09;;;;;;;1.91;1.81;;;;;;;21.72;55.17;100312.38;;;;-61
2019/07/20 03:02:09;;;;;;;2.09;1.95;;;;;;;21.73;55.19;100314.87;;;;-61
2019/07/20 03:05:10;;;;;;;2.06;1.89;;;;;;;21.73;55.18;100314.50;;;;-47
2019/07/20 03:08:09;;;;;;;2.07;1.87;;;;;;;21.72;55.14;100314.16;;;;-51
2019/07/20 03:11:09;;;;;;;1.91;1.80;;;;;;;21.72;55.21;100317.02;;;;-60
2019/07/20 03:14:09;;;;;;;3.04;1.89;;;;;;;21.72;55.15;100312.31;;;;-51
2019/07/20 03:17:09;;;;;;;2.01;1.83;;;;;;;21.73;55.25;100312.75;;;;-50
2019/07/20 03:20:09;;;;;;;2.05;1.92;;;;;;;21.72;55.22;100314.73;;;;-52
2019/07/20 03:23:10;;;;;;;2.17;1.97;;;;;;;21.71;55.24;100315.70;;;;-47
2019/07/20 03:26:09;;;;;;;2.12;1.92;;;;;;;21.72;55.16;100313.66;;;;-61
2019/07/20 03:29:09;;;;;;;2.12;1.92;;;;;;;21.71;55.22;100307.64;;;;-47
2019/07/20 03:32:09;;;;;;;2.15;1.83;;;;;;;21.71;55.23;100308.08;;;;-52
2019/07/20 03:35:09;;;;;;;1.99;1.89;;;;;;;21.70;55.16;100305.36;;;;-61
2019/07/20 03:38:09;;;;;;;2.15;1.96;;;;;;;21.71;55.20;100301.86;;;;-61
2019/07/20 03:41:09;;;;;;;1.85;1.75;;;;;;;21.71;55.21;100298.73;;;;-52
2019/07/20 03:44:09;;;;;;;2.01;1.87;;;;;;;21.71;55.15;100296.98;;;;-52
2019/07/20 03:47:09;;;;;;;1.95;1.85;;;;;;;21.71;55.21;100299.34;;;;-52
2019/07/20 03:50:09;;;;;;;1.91;1.81;;;;;;;21.71;55.23;100296.05;;;;-52
2019/07/20 03:53:09;;;;;;;1.87;1.77;;;;;;;21.70;55.17;100299.20;;;;-51
2019/07/20 03:56:09;;;;;;;1.83;1.73;;;;;;;21.71;55.20;100300.81;;;;-52
2019/07/20 03:59:09;;;;;;;2.03;1.85;;;;;;;21.70;55.14;100299.13;;;;-60
2019/07/20 04:02:09;;;;;;;2.00;1.90;;;;;;;21.69;55.20;100293.45;;;;-51
2019/07/20 04:05:09;;;;;;;2.16;1.77;;;;;;;21.70;55.17;100294.56;;;;-51
2019/07/20 04:08:09;;;;;;;1.93;1.83;;;;;;;21.70;55.14;100293.16;;;;-48
2019/07/20 04:11:09;;;;;;;1.90;1.80;;;;;;;21.70;55.20;100296.25;;;;-51
2019/07/20 04:14:09;;;;;;;1.90;1.80;;;;;;;21.70;55.18;100293.39;;;;-51
2019/07/20 04:17:09;;;;;;;8.93;2.57;;;;;;;21.61;56.73;100292.55;;;;-46
2019/07/20 04:20:09;;;;;;;3.70;3.40;;;;;;;21.53;57.62;100294.51;;;;-48
2019/07/20 04:23:09;;;;;;;4.02;3.62;;;;;;;21.48;57.85;100288.19;;;;-52
2019/07/20 04:26:09;;;;;;;4.75;3.72;;;;;;;21.44;58.31;100293.36;;;;-58
2019/07/20 04:29:09;;;;;;;6.78;3.86;;;;;;;21.42;58.47;100294.64;;;;-59
2019/07/20 04:32:09;;;;;;;4.21;3.81;;;;;;;21.37;58.66;100286.58;;;;-59
2019/07/20 04:35:09;;;;;;;6.25;3.93;;;;;;;21.38;58.69;100286.70;;;;-58
2019/07/20 04:38:09;;;;;;;5.77;4.06;;;;;;;21.36;58.68;100279.08;;;;-59
2019/07/20 04:41:09;;;;;;;6.02;4.23;;;;;;;21.34;58.98;100279.28;;;;-57
2019/07/20 04:44:09;;;;;;;5.15;3.86;;;;;;;21.36;58.79;100282.41;;;;-54
2019/07/20 04:47:09;;;;;;;6.40;4.24;;;;;;;21.36;58.75;100280.48;;;;-49
2019/07/20 04:50:09;;;;;;;4.95;3.91;;;;;;;21.37;58.61;100279.38;;;;-50
2019/07/20 04:53:09;;;;;;;5.75;4.07;;;;;;;21.32;58.99;100279.34;;;;-54
2019/07/20 04:56:09;;;;;;;6.05;3.95;;;;;;;21.31;59.03;100281.33;;;;-54
2019/07/20 04:59:09;;;;;;;7.18;3.95;;;;;;;21.30;59.05;100277.97;;;;-54
2019/07/20 05:02:09;;;;;;;6.87;4.26;;;;;;;21.30;59.20;100281.73;;;;-50
2019/07/20 05:05:09;;;;;;;5.90;4.21;;;;;;;21.32;59.08;100283.21;;;;-51
2019/07/20 05:08:09;;;;;;;5.66;4.01;;;;;;;21.34;58.85;100281.80;;;;-54
2019/07/20 05:11:09;;;;;;;5.45;4.13;;;;;;;21.35;59.12;100283.85;;;;-51
2019/07/20 05:14:09;;;;;;;6.65;4.43;;;;;;;21.34;59.09;100281.97;;;;-51
2019/07/20 05:17:09;;;;;;;4.92;4.41;;;;;;;21.35;59.33;100283.92;;;;-53
2019/07/20 05:20:09;;;;;;;6.61;4.21;;;;;;;21.37;58.92;100286.34;;;;-59
2019/07/20 05:23:09;;;;;;;5.61;4.41;;;;;;;21.38;59.17;100290.30;;;;-54
2019/07/20 05:26:09;;;;;;;7.53;4.30;;;;;;;21.38;59.23;100288.96;;;;-59
2019/07/20 05:29:09;;;;;;;5.54;4.35;;;;;;;21.37;59.22;100285.44;;;;-54
2019/07/20 05:32:09;;;;;;;5.83;4.19;;;;;;;21.37;59.12;100288.96;;;;-50
2019/07/20 05:35:09;;;;;;;4.95;4.42;;;;;;;21.41;59.37;100294.03;;;;-58
2019/07/20 05:38:09;;;;;;;6.61;4.21;;;;;;;21.43;59.13;100295.52;;;;-49
2019/07/20 05:41:09;;;;;;;5.44;4.25;;;;;;;21.45;58.99;100294.34;;;;-52
2019/07/20 05:44:09;;;;;;;6.12;4.43;;;;;;;21.45;59.07;100290.30;;;;-54
2019/07/20 05:47:09;;;;;;;5.68;4.40;;;;;;;21.47;59.13;100288.52;;;;-51
2019/07/20 05:50:09;;;;;;;6.97;4.51;;;;;;;21.48;59.06;100291.98;;;;-60
2019/07/20 05:53:09;;;;;;;5.90;4.61;;;;;;;21.50;59.04;100293.40;;;;-58
2019/07/20 05:56:09;;;;;;;5.20;4.53;;;;;;;21.52;58.91;100292.95;;;;-54
2019/07/20 05:59:09;;;;;;;6.20;4.51;;;;;;;21.53;58.71;100291.21;;;;-52
2019/07/20 06:02:09;;;;;;;7.65;4.47;;;;;;;21.54;58.66;100297.46;;;;-58
2019/07/20 06:05:09;;;;;;;5.65;4.59;;;;;;;21.56;58.58;100300.83;;;;-58
2019/07/20 06:08:09;;;;;;;5.09;4.59;;;;;;;21.57;58.38;100303.72;;;;-54
2019/07/20 06:11:09;;;;;;;5.07;4.47;;;;;;;21.59;58.67;100303.61;;;;-53
2019/07/20 06:14:09;;;;;;;7.43;4.63;;;;;;;21.59;58.48;100302.54;;;;-54
2019/07/20 06:17:09;;;;;;;5.93;4.51;;;;;;;21.60;58.24;100303.64;;;;-54
2019/07/20 06:20:09;;;;;;;6.27;4.46;;;;;;;21.59;58.22;100305.43;;;;-53
2019/07/20 06:23:09;;;;;;;4.51;4.09;;;;;;;21.62;58.12;100310.44;;;;-50
2019/07/20 06:26:09;;;;;;;5.96;4.39;;;;;;;21.61;58.01;100312.86;;;;-51
2019/07/20 06:29:09;;;;;;;7.03;4.42;;;;;;;21.61;57.96;100318.33;;;;-53
2019/07/20 06:32:09;;;;;;;7.17;4.39;;;;;;;21.62;57.96;100311.91;;;;-51
2019/07/20 06:35:09;;;;;;;5.38;4.21;;;;;;;21.62;57.77;100308.89;;;;-51
2019/07/20 06:38:09;;;;;;;7.87;4.22;;;;;;;21.63;57.75;100308.95;;;;-52
2019/07/20 06:41:09;;;;;;;6.01;4.35;;;;;;;21.63;57.67;100309.46;;;;-55
2019/07/20 06:44:09;;;;;;;4.63;4.19;;;;;;;21.62;57.67;100311.07;;;;-51
2019/07/20 06:47:09;;;;;;;7.28;4.16;;;;;;;21.63;57.52;100311.64;;;;-51
2019/07/20 06:50:09;;;;;;;6.22;4.26;;;;;;;21.62;57.51;100311.58;;;;-59
2019/07/20 06:53:09;;;;;;;7.44;4.13;;;;;;;21.62;57.42;100311.24;;;;-49
2019/07/20 06:56:09;;;;;;;5.79;4.27;;;;;;;21.62;57.38;100309.05;;;;-49
2019/07/20 06:59:09;;;;;;;5.83;4.07;;;;;;;21.63;57.33;100314.50;;;;-53
2019/07/20 07:02:09;;;;;;;6.33;4.19;;;;;;;21.63;57.33;100316.22;;;;-54
2019/07/20 07:05:09;;;;;;;4.50;4.10;;;;;;;21.63;57.22;100320.38;;;;-60
2019/07/20 07:08:09;;;;;;;5.05;3.95;;;;;;;21.63;57.18;100317.02;;;;-52
2019/07/20 07:11:09;;;;;;;4.34;3.94;;;;;;;21.63;57.20;100315.44;;;;-59
2019/07/20 07:14:09;;;;;;;4.80;4.14;;;;;;;21.63;57.13;100314.27;;;;-60
2019/07/20 07:17:09;;;;;;;4.39;4.00;;;;;;;21.63;57.05;100312.28;;;;-59
2019/07/20 07:20:09;;;;;;;5.32;4.07;;;;;;;21.64;57.53;100310.44;;;;-58
2019/07/20 07:23:09;;;;;;;8.18;3.99;;;;;;;21.68;57.30;100309.22;;;;-55
2019/07/20 07:26:09;;;;;;;4.01;3.66;;;;;;;21.70;57.21;100305.66;;;;-56
2019/07/20 07:29:09;;;;;;;5.51;3.87;;;;;;;21.73;57.19;100307.27;;;;-55
2019/07/20 07:32:09;;;;;;;11.17;4.00;;;;;;;21.74;57.17;100301.69;;;;-56
2019/07/20 07:35:09;;;;;;;4.41;3.79;;;;;;;21.77;57.18;100299.67;;;;-56
2019/07/20 07:38:09;;;;;;;4.33;3.93;;;;;;;21.78;57.14;100297.61;;;;-58
2019/07/20 07:41:09;;;;;;;4.38;3.86;;;;;;;21.77;56.95;100296.23;;;;-59
2019/07/20 07:44:09;;;;;;;4.10;3.74;;;;;;;21.77;56.99;100292.94;;;;-58
2019/07/20 07:47:09;;;;;;;5.79;3.87;;;;;;;21.77;57.05;100293.45;;;;-58
2019/07/20 07:50:09;;;;;;;4.93;3.59;;;;;;;21.75;57.02;100287.60;;;;-58
2019/07/20 07:53:09;;;;;;;4.67;3.57;;;;;;;21.75;56.97;100289.28;;;;-51
2019/07/20 07:56:09;;;;;;;6.29;3.77;;;;;;;21.75;56.94;100287.16;;;;-51
2019/07/20 07:59:09;;;;;;;3.93;3.63;;;;;;;21.74;56.93;100284.98;;;;-51
2019/07/20 08:02:09;;;;;;;4.20;3.80;;;;;;;21.74;56.91;100286.83;;;;-51
2019/07/20 08:05:09;;;;;;;4.11;3.71;;;;;;;21.74;56.84;100284.71;;;;-51
2019/07/20 08:08:09;;;;;;;4.22;3.56;;;;;;;21.74;56.84;100285.45;;;;-52
2019/07/20 08:11:09;;;;;;;4.13;3.73;;;;;;;21.73;56.77;100282.77;;;;-52
2019/07/20 08:14:09;;;;;;;4.26;3.85;;;;;;;21.73;56.78;100282.49;;;;-52
2019/07/20 08:17:09;;;;;;;4.74;3.60;;;;;;;21.72;56.74;100280.20;;;;-51
2019/07/20 08:20:09;;;;;;;3.74;3.44;;;;;;;21.72;56.72;100274.56;;;;-52
2019/07/20 08:23:09;;;;;;;4.03;3.55;;;;;;;21.72;56.72;100278.27;;;;-56
2019/07/20 08:26:09;;;;;;;4.49;3.44;;;;;;;21.72;56.72;100275.23;;;;-55
2019/07/20 08:29:09;;;;;;;4.61;3.58;;;;;;;21.72;56.68;100268.08;;;;-56
2019/07/20 08:32:09;;;;;;;4.36;3.57;;;;;;;21.72;56.65;100263.63;;;;-55
2019/07/20 08:35:09;;;;;;;3.77;3.45;;;;;;;21.71;56.68;100260.81;;;;-56
2019/07/20 08:38:09;;;;;;;4.03;3.69;;;;;;;21.71;56.63;100258.22;;;;-56
2019/07/20 08:41:09;;;;;;;3.79;3.42;;;;;;;21.70;56.64;100254.33;;;;-56
2019/07/20 08:44:09;;;;;;;8.47;3.58;;;;;;;21.69;56.81;100252.17;;;;-52
2019/07/20 08:47:09;;;;;;;4.66;3.43;;;;;;;21.73;56.75;100252.41;;;;-52
2019/07/20 08:50:09;;;;;;;4.77;3.53;;;;;;;21.75;56.71;100258.02;;;;-52
2019/07/20 08:53:09;;;;;;;4.43;3.47;;;;;;;21.77;56.80;100255.73;;;;-52
2019/07/20 08:56:09;;;;;;;3.75;3.37;;;;;;;21.79;56.82;100256.46;;;;-52
2019/07/20 08:59:09;;;;;;;4.03;3.61;;;;;;;21.82;56.84;100263.62;;;;-51
2019/07/20 09:02:09;;;;;;;4.14;3.52;;;;;;;21.84;56.88;100260.72;;;;-51
2019/07/20 09:05:09;;;;;;;3.85;3.47;;;;;;;21.83;56.74;100262.64;;;;-52
2019/07/20 09:08:09;;;;;;;4.03;3.64;;;;;;;21.85;56.89;100257.90;;;;-53
2019/07/20 09:11:09;;;;;;;4.16;3.30;;;;;;;21.87;56.88;100258.53;;;;-52
2019/07/20 09:14:09;;;;;;;5.13;3.49;;;;;;;21.89;56.83;100257.52;;;;-51
2019/07/20 09:17:09;;;;;;;7.97;3.70;;;;;;;21.91;56.93;100247.42;;;;-51
2019/07/20 09:20:09;;;;;;;18.97;4.03;;;;;;;21.95;57.14;100241.97;;;;-53
2019/07/20 09:23:09;;;;;;;8.24;3.75;;;;;;;21.96;57.18;100238.91;;;;-50
2019/07/20 09:26:09;;;;;;;5.29;3.54;;;;;;;21.99;57.01;100238.90;;;;-54
2019/07/20 09:29:09;;;;;;;8.11;3.59;;;;;;;22.01;57.07;100238.19;;;;-51
2019/07/20 09:32:09;;;;;;;7.79;3.78;;;;;;;22.01;57.16;100238.45;;;;-51
2019/07/20 09:35:09;;;;;;;9.14;3.72;;;;;;;22.03;57.13;100238.45;;;;-48
2019/07/20 09:38:09;;;;;;;7.76;3.53;;;;;;;22.05;57.05;100237.40;;;;-51
2019/07/20 09:41:09;;;;;;;6.48;3.61;;;;;;;22.07;56.91;100235.01;;;;-52
2019/07/20 09:44:09;;;;;;;9.29;3.55;;;;;;;22.08;57.04;100234.46;;;;-52
2019/07/20 09:47:09;;;;;;;7.09;3.44;;;;;;;22.10;57.23;100238.39;;;;-48
2019/07/20 09:50:09;;;;;;;5.63;3.45;;;;;;;22.10;57.24;100245.12;;;;-53
2019/07/20 09:53:09;;;;;;;8.52;3.55;;;;;;;22.12;57.05;100243.50;;;;-51
2019/07/20 09:56:09;;;;;;;7.25;3.64;;;;;;;22.13;57.02;100233.50;;;;-54
2019/07/20 09:59:09;;;;;;;7.37;3.51;;;;;;;22.14;56.98;100233.30;;;;-51
2019/07/20 10:02:09;;;;;;;7.66;3.87;;;;;;;22.14;56.93;100231.62;;;;-55
2019/07/20 10:05:09;;;;;;;5.91;3.63;;;;;;;22.15;56.91;100230.27;;;;-53
2019/07/20 10:08:09;;;;;;;5.66;3.49;;;;;;;22.16;56.89;100227.80;;;;-56
2019/07/20 10:11:09;;;;;;;5.33;3.55;;;;;;;22.16;56.75;100227.37;;;;-48
2019/07/20 10:14:09;;;;;;;5.63;3.36;;;;;;;22.18;56.84;100229.52;;;;-50
2019/07/20 10:17:09;;;;;;;4.72;3.41;;;;;;;22.17;56.67;100229.45;;;;-54
2019/07/20 10:20:09;;;;;;;5.17;3.46;;;;;;;22.17;56.82;100232.64;;;;-53
2019/07/20 10:23:09;;;;;;;4.45;3.23;;;;;;;22.17;56.67;100230.36;;;;-53
2019/07/20 10:26:09;;;;;;;5.21;3.35;;;;;;;22.16;56.77;100221.41;;;;-51
2019/07/20 10:29:09;;;;;;;6.15;3.37;;;;;;;22.18;56.70;100220.20;;;;-52
2019/07/20 10:32:09;;;;;;;17.58;3.67;;;;;;;22.19;57.23;100218.55;;;;-51
2019/07/20 10:35:09;;;;;;;6.74;3.49;;;;;;;22.19;56.64;100221.77;;;;-50
2019/07/20 10:38:09;;;;;;;7.54;3.55;;;;;;;22.22;56.70;100218.70;;;;-53
2019/07/20 10:41:09;;;;;;;6.19;3.79;;;;;;;22.23;56.90;100219.84;;;;-50
2019/07/20 10:44:09;;;;;;;10.29;3.55;;;;;;;22.24;56.95;100213.64;;;;-50
2019/07/20 10:47:09;;;;;;;6.39;3.44;;;;;;;22.25;56.94;100211.99;;;;-52
2019/07/20 10:50:09;;;;;;;8.19;3.57;;;;;;;22.25;56.74;100220.17;;;;-53
2019/07/20 10:53:09;;;;;;;6.83;3.50;;;;;;;22.25;56.83;100221.41;;;;-52
2019/07/20 10:56:09;;;;;;;7.83;3.54;;;;;;;22.26;56.78;100229.52;;;;-51
2019/07/20 10:59:09;;;;;;;5.99;3.50;;;;;;;22.27;56.85;100233.48;;;;-51
2019/07/20 11:02:09;;;;;;;4.99;3.53;;;;;;;22.27;56.77;100241.89;;;;-53
2019/07/20 11:05:09;;;;;;;6.19;3.34;;;;;;;22.28;56.76;100242.46;;;;-54
2019/07/20 11:08:09;;;;;;;6.91;3.43;;;;;;;22.29;56.69;100244.34;;;;-52
2019/07/20 11:11:09;;;;;;;7.37;3.70;;;;;;;22.30;56.63;100247.20;;;;-51
2019/07/20 11:14:09;;;;;;;6.39;3.32;;;;;;;22.29;56.73;100246.27;;;;-56
2019/07/20 11:17:09;;;;;;;7.27;3.40;;;;;;;22.29;56.61;100250.06;;;;-49
2019/07/20 11:20:09;;;;;;;9.37;3.41;;;;;;;22.27;56.48;100244.52;;;;-49
2019/07/20 11:23:09;;;;;;;7.17;3.25;;;;;;;22.26;56.74;100248.29;;;;-50
2019/07/20 11:26:09;;;;;;;6.31;3.35;;;;;;;22.26;56.56;100247.59;;;;-50
2019/07/20 11:29:09;;;;;;;6.31;3.49;;;;;;;22.24;56.53;100246.55;;;;-49
2019/07/20 11:32:09;;;;;;;4.01;3.05;;;;;;;22.24;56.57;100242.51;;;;-50
2019/07/20 11:35:09;;;;;;;5.61;3.27;;;;;;;22.23;56.48;100240.77;;;;-50
2019/07/20 11:38:09;;;;;;;6.97;3.45;;;;;;;22.22;56.59;100239.76;;;;-51
2019/07/20 11:41:09;;;;;;;8.14;3.59;;;;;;;22.23;56.37;100237.67;;;;-51
2019/07/20 11:44:09;;;;;;;5.90;3.47;;;;;;;22.24;56.44;100231.98;;;;-51
2019/07/20 11:47:09;;;;;;;7.14;3.26;;;;;;;22.25;56.45;100224.44;;;;-51
2019/07/20 11:50:09;;;;;;;5.36;3.31;;;;;;;22.24;56.38;100225.48;;;;-52
2019/07/20 11:53:09;;;;;;;5.14;3.53;;;;;;;22.23;56.38;100221.12;;;;-47
2019/07/20 11:56:09;;;;;;;6.29;3.19;;;;;;;22.23;56.38;100215.53;;;;-47
2019/07/20 11:59:09;;;;;;;4.83;3.32;;;;;;;22.22;56.41;100212.84;;;;-47
2019/07/20 12:02:09;;;;;;;6.52;3.23;;;;;;;22.22;56.29;100209.22;;;;-50
2019/07/20 12:05:09;;;;;;;4.29;3.20;;;;;;;22.20;56.34;100218.27;;;;-60
2019/07/20 12:08:09;;;;;;;5.35;3.27;;;;;;;22.21;56.31;100203.13;;;;-60
2019/07/20 12:11:09;;;;;;;5.21;3.30;;;;;;;22.21;56.23;100194.31;;;;-60
2019/07/20 12:14:09;;;;;;;4.66;3.03;;;;;;;22.19;56.20;100193.81;;;;-61
2019/07/20 12:17:09;;;;;;;4.00;3.06;;;;;;;22.20;56.24;100185.67;;;;-61
2019/07/20 12:20:09;;;;;;;5.35;3.01;;;;;;;22.19;56.19;100184.84;;;;-60
2019/07/20 12:23:09;;;;;;;4.67;3.18;;;;;;;22.19;56.19;100180.03;;;;-61
2019/07/20 12:26:09;;;;;;;4.02;3.05;;;;;;;22.19;56.21;100181.44;;;;-60
2019/07/20 12:29:09;;;;;;;4.51;3.29;;;;;;;22.18;56.15;100181.11;;;;-60
2019/07/20 12:32:09;;;;;;;4.57;3.32;;;;;;;22.19;56.15;100177.23;;;;-60
2019/07/20 12:35:09;;;;;;;4.61;3.35;;;;;;;22.18;56.10;100177.55;;;;-47
2019/07/20 12:38:09;;;;;;;3.86;3.11;;;;;;;22.17;56.10;100179.46;;;;-46
2019/07/20 12:41:09;;;;;;;5.02;3.19;;;;;;;22.17;56.10;100177.17;;;;-47
2019/07/20 12:44:09;;;;;;;4.39;2.95;;;;;;;22.17;56.11;100182.69;;;;-47
2019/07/20 12:47:09;;;;;;;3.85;3.13;;;;;;;22.17;56.08;100177.28;;;;-47
2019/07/20 12:50:09;;;;;;;3.36;3.06;;;;;;;22.17;56.09;100168.29;;;;-46
2019/07/20 12:53:09;;;;;;;3.79;3.35;;;;;;;22.16;56.06;100173.07;;;;-47
2019/07/20 12:56:09;;;;;;;3.98;3.16;;;;;;;22.15;56.03;100171.19;;;;-47
2019/07/20 12:59:09;;;;;;;3.65;3.04;;;;;;;22.16;56.05;100162.71;;;;-47
2019/07/20 13:02:09;;;;;;;4.04;3.17;;;;;;;22.16;56.04;100168.00;;;;-48
2019/07/20 13:05:09;;;;;;;4.34;3.21;;;;;;;22.15;55.99;100165.20;;;;-47
2019/07/20 13:08:09;;;;;;;7.39;3.50;;;;;;;22.16;56.25;100166.05;;;;-46
2019/07/20 13:11:09;;;;;;;4.84;3.29;;;;;;;22.17;56.19;100175.36;;;;-46
2019/07/20 13:14:09;;;;;;;4.49;3.43;;;;;;;22.20;56.17;100168.21;;;;-60
2019/07/20 13:17:09;;;;;;;4.91;3.15;;;;;;;22.23;56.20;100169.55;;;;-45
2019/07/20 13:20:09;;;;;;;4.15;3.29;;;;;;;22.24;56.14;100160.31;;;;-58
2019/07/20 13:23:09;;;;;;;5.41;3.25;;;;;;;22.24;56.25;100149.38;;;;-59
2019/07/20 13:26:09;;;;;;;4.38;3.29;;;;;;;22.26;56.33;100148.43;;;;-51
2019/07/20 13:29:09;;;;;;;3.92;3.11;;;;;;;22.28;56.27;100143.95;;;;-51
2019/07/20 13:32:09;;;;;;;5.16;3.10;;;;;;;22.30;56.23;100139.56;;;;-50
2019/07/20 13:35:09;;;;;;;9.33;3.34;;;;;;;22.28;56.41;100136.11;;;;-50
2019/07/20 13:38:09;;;;;;;7.97;3.34;;;;;;;22.27;56.20;100134.50;;;;-50
2019/07/20 13:41:09;;;;;;;5.10;3.44;;;;;;;22.26;56.32;100141.97;;;;-51
2019/07/20 13:44:09;;;;;;;3.63;3.17;;;;;;;22.26;56.24;100136.25;;;;-50
2019/07/20 13:47:09;;;;;;;11.68;3.28;;;;;;;22.25;56.18;100132.19;;;;-50
2019/07/20 13:50:08;;;;;;;8.31;3.37;;;;;;;22.24;56.42;100135.16;;;;-52
2019/07/20 13:53:09;;;;;;;7.97;3.60;;;;;;;22.27;56.43;100133.48;;;;-51
2019/07/20 13:56:09;;;;;;;5.35;3.54;;;;;;;22.28;56.51;100120.30;;;;-46
2019/07/20 13:59:09;;;;;;;6.09;3.46;;;;;;;22.29;56.52;100116.98;;;;-50
2019/07/20 14:02:09;;;;;;;4.73;3.27;;;;;;;22.30;56.54;100118.77;;;;-48
2019/07/20 14:05:09;;;;;;;7.01;3.60;;;;;;;22.31;56.56;100119.30;;;;-49
2019/07/20 14:08:08;;;;;;;14.95;3.53;;;;;;;22.32;56.42;100108.89;;;;-48
2019/07/20 14:11:09;;;;;;;5.72;3.81;;;;;;;22.34;56.44;100117.46;;;;-49
2019/07/20 14:14:09;;;;;;;7.09;3.75;;;;;;;22.36;56.44;100113.92;;;;-53
2019/07/20 14:17:09;;;;;;;5.92;3.37;;;;;;;22.37;56.36;100115.69;;;;-50
2019/07/20 14:20:09;;;;;;;8.77;3.66;;;;;;;22.39;56.49;100117.60;;;;-50
2019/07/20 14:23:09;;;;;;;12.49;3.55;;;;;;;22.40;56.50;100113.42;;;;-50
2019/07/20 14:26:09;;;;;;;7.09;3.45;;;;;;;22.39;56.58;100107.50;;;;-52
2019/07/20 14:29:09;;;;;;;9.12;3.53;;;;;;;22.37;56.36;100097.29;;;;-53
2019/07/20 14:32:08;;;;;;;8.42;3.64;;;;;;;22.36;56.37;100093.30;;;;-52
2019/07/20 14:35:09;;;;;;;10.40;3.79;;;;;;;22.34;56.43;100099.39;;;;-52
2019/07/20 14:38:09;;;;;;;9.23;3.55;;;;;;;22.33;56.42;100095.70;;;;-52
2019/07/20 14:41:09;;;;;;;9.38;3.61;;;;;;;22.32;56.35;100095.77;;;;-52
2019/07/20 14:44:09;;;;;;;7.78;3.53;;;;;;;22.31;56.37;100090.60;;;;-52
2019/07/20 14:47:09;;;;;;;7.01;3.40;;;;;;;22.30;56.34;100095.63;;;;-62
2019/07/20 14:50:09;;;;;;;9.11;3.25;;;;;;;22.29;56.29;100093.50;;;;-63
2019/07/20 14:53:09;;;;;;;7.60;3.53;;;;;;;22.28;56.29;100091.13;;;;-62
2019/07/20 14:56:09;;;;;;;6.23;3.39;;;;;;;22.27;56.30;100095.41;;;;-62
2019/07/20 14:59:09;;;;;;;11.91;3.61;;;;;;;22.27;56.31;100100.08;;;;-62
2019/07/20 15:02:09;;;;;;;5.43;3.35;;;;;;;22.26;56.32;100113.11;;;;-62
2019/07/20 15:05:09;;;;;;;8.01;3.62;;;;;;;22.26;56.27;100104.09;;;;-60
2019/07/20 15:08:09;;;;;;;5.69;3.56;;;;;;;22.24;56.28;100109.28;;;;-60
2019/07/20 15:11:09;;;;;;;4.68;3.22;;;;;;;22.24;56.24;100105.08;;;;-61
2019/07/20 15:14:09;;;;;;;9.85;3.21;;;;;;;22.23;56.20;100098.89;;;;-59
2019/07/20 15:17:09;;;;;;;7.91;3.88;;;;;;;22.25;56.34;100106.59;;;;-48
2019/07/20 15:20:09;;;;;;;5.96;3.38;;;;;;;22.26;56.17;100098.64;;;;-56
2019/07/20 15:23:09;;;;;;;5.77;3.32;;;;;;;22.28;56.17;100100.20;;;;-52
2019/07/20 15:26:09;;;;;;;7.14;3.60;;;;;;;22.31;56.37;100104.56;;;;-51
2019/07/20 15:29:09;;;;;;;5.77;3.50;;;;;;;22.32;56.41;100096.34;;;;-56
2019/07/20 15:32:09;;;;;;;5.76;3.17;;;;;;;22.34;56.36;100087.34;;;;-50
2019/07/20 15:35:09;;;;;;;6.20;3.34;;;;;;;22.36;56.41;100083.87;;;;-52
2019/07/20 15:38:09;;;;;;;5.53;3.39;;;;;;;22.37;56.35;100083.89;;;;-51
2019/07/20 15:41:09;;;;;;;6.11;3.19;;;;;;;22.38;56.32;100088.13;;;;-50
2019/07/20 15:44:09;;;;;;;8.40;3.49;;;;;;;22.39;56.38;100082.70;;;;-51
2019/07/20 15:47:09;;;;;;;8.27;3.61;;;;;;;22.40;56.46;100079.84;;;;-52
2019/07/20 15:50:09;;;;;;;4.68;3.03;;;;;;;22.41;56.42;100085.61;;;;-51
2019/07/20 15:53:09;;;;;;;8.81;3.49;;;;;;;22.41;56.45;100082.55;;;;-51
2019/07/20 15:56:09;;;;;;;5.95;3.37;;;;;;;22.41;56.42;100089.38;;;;-49
2019/07/20 15:59:09;;;;;;;7.75;3.37;;;;;;;22.43;56.43;100077.90;;;;-50
2019/07/20 16:02:09;;;;;;;5.16;3.33;;;;;;;22.45;56.42;100078.89;;;;-50
2019/07/20 16:05:09;;;;;;;7.09;3.53;;;;;;;22.46;56.46;100072.02;;;;-49
2019/07/20 16:08:09;;;;;;;6.00;3.35;;;;;;;22.47;56.44;100075.38;;;;-50
2019/07/20 16:11:09;;;;;;;4.59;3.35;;;;;;;22.47;56.49;100078.37;;;;-57
2019/07/20 16:14:09;;;;;;;5.64;3.45;;;;;;;22.46;56.21;100076.73;;;;-57
2019/07/20 16:17:09;;;;;;;7.55;3.39;;;;;;;22.44;56.25;100084.98;;;;-58
2019/07/20 16:20:09;;;;;;;8.87;3.70;;;;;;;22.45;56.83;100089.22;;;;-61
2019/07/20 16:23:09;;;;;;;8.14;3.73;;;;;;;22.46;56.45;100090.86;;;;-57
2019/07/20 16:26:09;;;;;;;5.56;3.34;;;;;;;22.47;56.74;100088.30;;;;-60
2019/07/20 16:29:09;;;;;;;6.43;3.41;;;;;;;22.48;56.86;100088.46;;;;-52
2019/07/20 16:32:09;;;;;;;6.55;3.53;;;;;;;22.49;56.79;100092.02;;;;-50
2019/07/20 16:35:09;;;;;;;11.08;3.79;;;;;;;22.50;57.01;100095.14;;;;-52
2019/07/20 16:38:09;;;;;;;9.77;3.55;;;;;;;22.52;56.76;100101.42;;;;-53
2019/07/20 16:41:08;;;;;;;9.71;3.57;;;;;;;22.51;56.74;100105.40;;;;-53